Time;durP1;ratioP1;P1;durP2;ratioP2;P2;SDS_P1;SDS_P2;PMS_P1;PMS_P2;Temp;Humidity;BMP_temperature;BMP_pressure;BME280_temperature;BME280_humidity;BME280_pressure;Samples;Min_cycle;Max_cycle;Signal;HPM_P1;HPM_P2
2021/11/01 00:00:36;;;;;;;2.22;1.05;;;11.50;99.90;;;;;;5068144;28;20389;-82
2021/11/01 00:03:02;;;;;;;2.53;1.10;;;11.50;99.90;;;;;;5090411;28;20051;-82
2021/11/01 00:05:27;;;;;;;2.03;0.90;;;11.60;99.90;;;;;;5089452;28;20082;-81
2021/11/01 00:07:53;;;;;;;3.75;0.93;;;11.50;99.90;;;;;;5092155;28;20024;-82
2021/11/01 00:10:20;;;;;;;1.60;0.85;;;11.60;99.90;;;;;;5092012;28;20028;-83
2021/11/01 00:12:46;;;;;;;2.05;0.90;;;11.50;99.90;;;;;;5069632;28;20050;-82
2021/11/01 00:15:14;;;;;;;2.20;0.88;;;11.50;99.90;;;;;;5083795;28;20032;-83
2021/11/01 00:17:40;;;;;;;2.63;0.90;;;11.50;99.90;;;;;;5071710;28;20020;-82
2021/11/01 00:20:07;;;;;;;2.35;0.90;;;11.60;99.90;;;;;;5079239;28;20434;-83
2021/11/01 00:22:35;;;;;;;2.63;0.80;;;11.60;99.90;;;;;;5079109;28;20032;-83
2021/11/01 00:25:02;;;;;;;2.00;0.68;;;11.60;99.90;;;;;;5100376;28;20026;-83
2021/11/01 00:27:27;;;;;;;2.25;0.82;;;11.70;99.90;;;;;;5092451;28;20032;-82
2021/11/01 00:29:53;;;;;;;1.40;0.70;;;11.80;99.90;;;;;;5082344;28;20509;-83
2021/11/01 00:32:19;;;;;;;2.10;0.90;;;12.00;99.90;;;;;;5099194;28;20032;-82
2021/11/01 00:34:45;;;;;;;2.15;0.90;;;12.20;99.90;;;;;;5103576;28;20031;-83
2021/11/01 00:37:11;;;;;;;2.58;0.98;;;12.20;99.90;;;;;;5081778;28;20036;-81
2021/11/01 00:39:37;;;;;;;3.03;1.10;;;12.30;99.90;;;;;;5087714;28;20086;-83
2021/11/01 00:42:05;;;;;;;2.58;0.98;;;12.20;99.90;;;;;;5078899;28;20024;-83
2021/11/01 00:44:31;;;;;;;2.22;0.85;;;12.20;99.90;;;;;;5093887;28;20036;-82
2021/11/01 00:46:58;;;;;;;1.80;0.80;;;12.20;99.90;;;;;;5088106;28;20035;-83
2021/11/01 00:49:25;;;;;;;2.30;0.98;;;12.20;99.90;;;;;;5091600;28;20034;-81
2021/11/01 00:51:53;;;;;;;1.73;1.00;;;12.20;99.90;;;;;;5092347;28;20111;-82
2021/11/01 00:54:19;;;;;;;2.15;0.95;;;12.20;99.90;;;;;;5079988;28;20034;-82
2021/11/01 00:56:45;;;;;;;2.33;0.80;;;12.20;99.90;;;;;;5078511;28;20114;-82
2021/11/01 00:59:10;;;;;;;1.20;0.50;;;12.30;99.90;;;;;;5099135;28;20035;-81
2021/11/01 01:01:39;;;;;;;1.63;0.50;;;12.60;99.90;;;;;;5090327;28;20044;-83
2021/11/01 01:04:05;;;;;;;1.77;0.30;;;12.80;99.90;;;;;;5105497;28;20024;-84
2021/11/01 01:06:30;;;;;;;0.82;0.40;;;13.00;99.90;;;;;;5084032;28;20056;-82
2021/11/01 01:08:56;;;;;;;0.75;0.30;;;13.10;99.90;;;;;;5094534;28;20032;-83
2021/11/01 01:11:22;;;;;;;0.63;0.20;;;13.20;99.90;;;;;;5094020;28;20024;-81
2021/11/01 01:13:51;;;;;;;0.70;0.30;;;13.50;99.90;;;;;;5102128;28;20016;-83
2021/11/01 01:18:49;;;;;;;1.30;0.50;;;13.60;99.90;;;;;;5095682;28;20028;-81
2021/11/01 01:24:01;;;;;;;0.80;0.40;;;13.60;99.90;;;;;;5095733;28;20206;-81
2021/11/01 01:26:27;;;;;;;1.45;0.57;;;13.50;99.90;;;;;;5071143;28;20032;-83
2021/11/01 01:28:53;;;;;;;2.28;0.47;;;13.40;99.90;;;;;;5099386;28;20046;-82
2021/11/01 01:31:19;;;;;;;0.93;0.40;;;13.20;99.90;;;;;;5106898;28;20024;-82
2021/11/01 01:33:45;;;;;;;1.45;0.40;;;13.10;99.90;;;;;;5090561;28;20016;-81
2021/11/01 01:36:11;;;;;;;1.08;0.45;;;13.10;99.90;;;;;;5088165;28;20024;-84
2021/11/01 01:38:36;;;;;;;1.85;0.68;;;13.10;99.90;;;;;;5139831;23;20095;-88
2021/11/01 01:41:13;;;;;;;1.73;0.70;;;12.90;99.90;;;;;;5074088;28;20025;-88
2021/11/01 01:43:43;;;;;;;1.15;0.57;;;12.90;99.90;;;;;;5070143;28;20028;-88
2021/11/01 01:46:09;;;;;;;2.22;0.70;;;13.10;99.90;;;;;;5067506;28;20048;-89
2021/11/01 01:48:35;;;;;;;1.00;0.43;;;12.90;99.90;;;;;;5060484;28;20021;-88
2021/11/01 01:51:00;;;;;;;1.80;0.60;;;12.80;99.90;;;;;;5067458;28;20013;-89
2021/11/01 01:53:26;;;;;;;1.20;0.50;;;12.50;99.90;;;;;;5050330;28;20627;-89
2021/11/01 01:55:51;;;;;;;2.60;0.82;;;13.00;99.90;;;;;;5053419;28;20120;-89
2021/11/01 01:58:19;;;;;;;1.10;0.47;;;12.90;99.90;;;;;;5054969;28;20063;-89
2021/11/01 02:01:04;;;;;;;1.25;0.40;;;12.90;99.90;;;;;;5048979;28;20079;-88
2021/11/01 02:03:29;;;;;;;0.47;0.30;;;12.90;99.90;;;;;;5051115;28;20025;-89
2021/11/01 02:06:06;;;;;;;1.05;0.40;;;12.90;99.90;;;;;;5051582;28;20113;-88
2021/11/01 02:08:42;;;;;;;0.95;0.30;;;13.00;99.90;;;;;;5049523;28;20075;-88
2021/11/01 02:11:21;;;;;;;0.55;0.28;;;13.00;99.90;;;;;;5067600;28;20049;-88
2021/11/01 02:13:52;;;;;;;0.77;0.40;;;13.10;99.90;;;;;;5052617;28;20017;-89
2021/11/01 02:16:18;;;;;;;1.13;0.47;;;13.20;99.90;;;;;;5052016;28;20036;-89
2021/11/01 02:18:49;;;;;;;1.40;0.45;;;13.30;99.90;;;;;;5053436;28;20024;-88
2021/11/01 02:21:53;;;;;;;0.80;0.30;;;13.40;99.90;;;;;;5066767;28;20517;-89
2021/11/01 02:24:45;;;;;;;1.33;0.20;;;13.20;99.90;;;;;;5002222;28;20026;-89
2021/11/01 02:27:13;;;;;;;0.40;0.20;;;13.10;99.90;;;;;;5049061;28;20499;-90
2021/11/01 02:29:44;;;;;;;1.45;0.10;;;12.90;99.90;;;;;;5047210;28;20029;-89
2021/11/01 02:32:11;;;;;;;0.32;0.13;;;12.80;99.90;;;;;;5048878;28;20017;-87
2021/11/01 02:34:38;;;;;;;1.42;0.20;;;12.60;99.90;;;;;;5051307;28;20113;-87
2021/11/01 02:37:04;;;;;;;0.05;0.00;;;12.40;99.90;;;;;;5051457;28;20048;-86
2021/11/01 02:39:32;;;;;;;0.38;0.10;;;12.30;99.90;;;;;;5051418;28;20082;-87
2021/11/01 02:41:59;;;;;;;0.63;0.22;;;12.00;99.90;;;;;;5052345;28;20032;-87
2021/11/01 02:44:27;;;;;;;2.58;0.30;;;12.10;99.90;;;;;;5048311;28;20021;-86
2021/11/01 02:46:54;;;;;;;0.90;0.15;;;11.90;99.90;;;;;;5051650;28;20025;-87
2021/11/01 02:49:21;;;;;;;0.55;0.00;;;12.20;99.90;;;;;;5070262;28;20017;-86
2021/11/01 02:51:47;;;;;;;1.48;0.20;;;11.70;99.90;;;;;;5055025;28;20024;-86
2021/11/01 02:54:13;;;;;;;0.95;0.20;;;11.70;99.90;;;;;;5071822;28;20021;-86
2021/11/01 02:56:38;;;;;;;0.32;0.10;;;11.60;99.90;;;;;;5056640;28;20031;-86
2021/11/01 02:59:04;;;;;;;0.88;0.30;;;11.60;99.90;;;;;;5055853;28;20025;-86
2021/11/01 03:01:30;;;;;;;0.30;0.10;;;11.80;99.90;;;;;;5053792;28;20055;-86
2021/11/01 03:03:56;;;;;;;0.13;0.10;;;11.50;99.90;;;;;;5056694;28;20388;-86
2021/11/01 03:06:24;;;;;;;1.15;0.20;;;11.40;99.90;;;;;;5052864;28;20021;-86
2021/11/01 03:08:52;;;;;;;0.88;0.20;;;11.30;99.90;;;;;;5051378;28;20036;-86
2021/11/01 03:11:19;;;;;;;0.15;0.10;;;11.30;99.90;;;;;;5050041;28;20035;-85
2021/11/01 03:13:46;;;;;;;1.30;0.17;;;11.20;99.90;;;;;;5049450;28;20494;-85
2021/11/01 03:16:13;;;;;;;1.02;0.10;;;11.20;99.90;;;;;;5068600;28;20096;-85
2021/11/01 03:19:03;;;;;;;0.68;0.10;;;11.20;99.90;;;;;;5057089;28;20025;-85
2021/11/01 03:21:31;;;;;;;0.45;0.10;;;11.10;99.90;;;;;;5053593;28;20037;-85
2021/11/01 03:23:57;;;;;;;0.10;0.00;;;11.10;99.90;;;;;;5056417;28;20029;-85
2021/11/01 03:26:24;;;;;;;0.45;0.10;;;11.10;99.90;;;;;;5055275;28;20028;-85
2021/11/01 03:28:53;;;;;;;0.75;0.10;;;11.20;99.90;;;;;;5056820;28;20025;-85
2021/11/01 03:31:22;;;;;;;0.85;0.17;;;10.90;99.90;;;;;;5052502;28;20029;-85
2021/11/01 03:33:48;;;;;;;2.22;0.20;;;11.00;99.90;;;;;;5055576;28;20081;-86
2021/11/01 03:36:14;;;;;;;0.77;0.10;;;10.90;99.90;;;;;;5053352;28;20025;-85
2021/11/01 03:38:42;;;;;;;0.60;0.17;;;10.50;99.90;;;;;;5054751;28;20083;-86
2021/11/01 03:41:10;;;;;;;1.48;0.20;;;10.80;99.90;;;;;;5054853;28;20052;-86
2021/11/01 03:43:45;;;;;;;0.52;0.10;;;10.80;99.90;;;;;;5052073;28;20032;-86
2021/11/01 03:46:12;;;;;;;1.33;0.10;;;10.50;99.90;;;;;;5054631;28;20025;-86
2021/11/01 03:48:43;;;;;;;0.40;0.20;;;10.70;99.90;;;;;;5047880;28;20055;-86
2021/11/01 03:51:26;;;;;;;1.05;0.17;;;10.70;99.90;;;;;;5054677;28;20021;-85
2021/11/01 03:53:52;;;;;;;1.60;0.40;;;10.70;99.90;;;;;;5054758;28;20029;-86
2021/11/01 03:56:18;;;;;;;0.47;0.10;;;10.50;99.90;;;;;;5050078;28;20021;-86
2021/11/01 03:58:44;;;;;;;1.13;0.17;;;10.60;99.90;;;;;;5051720;28;20051;-84
2021/11/01 04:01:09;;;;;;;0.60;0.10;;;10.70;99.90;;;;;;5053236;28;20021;-85
2021/11/01 04:03:35;;;;;;;2.42;0.17;;;10.80;99.90;;;;;;5054261;28;20383;-86
2021/11/01 04:06:03;;;;;;;0.35;0.10;;;10.60;99.90;;;;;;5054559;28;20052;-86
2021/11/01 04:08:31;;;;;;;0.40;0.10;;;10.50;99.90;;;;;;5055066;28;20039;-86
2021/11/01 04:10:57;;;;;;;0.85;0.17;;;10.50;99.90;;;;;;5053663;28;20025;-86
2021/11/01 04:13:23;;;;;;;1.20;0.40;;;10.50;99.90;;;;;;5056639;28;20028;-86
2021/11/01 04:15:57;;;;;;;0.30;0.10;;;10.40;99.90;;;;;;5054079;28;20024;-85
2021/11/01 04:18:40;;;;;;;0.17;0.10;;;10.40;99.90;;;;;;5051726;28;20035;-85
2021/11/01 04:21:09;;;;;;;1.48;0.10;;;10.40;99.90;;;;;;5044920;28;20536;-86
2021/11/01 04:23:36;;;;;;;1.45;0.08;;;10.40;99.90;;;;;;5068830;28;20024;-86
2021/11/01 04:26:02;;;;;;;0.98;0.00;;;10.40;99.90;;;;;;5070221;28;20056;-86
2021/11/01 04:28:29;;;;;;;2.15;0.20;;;10.40;99.90;;;;;;5055451;28;20017;-85
2021/11/01 04:31:09;;;;;;;0.70;0.10;;;10.80;99.90;;;;;;5053051;28;20013;-86
2021/11/01 04:33:36;;;;;;;0.57;0.13;;;10.30;99.90;;;;;;5054404;28;20013;-86
2021/11/01 04:36:02;;;;;;;0.73;0.08;;;10.40;99.90;;;;;;5051744;28;20029;-85
2021/11/01 04:39:02;;;;;;;1.27;0.13;;;10.30;99.90;;;;;;5052701;28;20025;-85
2021/11/01 04:44:17;;;;;;;0.85;0.00;;;10.30;99.90;;;;;;5054502;28;20056;-85
2021/11/01 04:54:56;;;;;;;3.05;0.40;;;10.20;99.90;;;;;;5050555;28;20481;-85
2021/11/01 04:57:22;;;;;;;1.92;0.30;;;10.10;99.90;;;;;;5053816;28;20017;-85
2021/11/01 04:59:49;;;;;;;1.75;0.20;;;10.20;99.90;;;;;;5049337;28;20036;-86
2021/11/01 05:02:15;;;;;;;1.50;0.20;;;10.30;99.90;;;;;;5052128;28;20071;-85
2021/11/01 05:04:43;;;;;;;0.90;0.10;;;10.20;99.90;;;;;;5049737;28;20044;-85
2021/11/01 05:07:09;;;;;;;1.08;0.20;;;10.20;99.90;;;;;;5049567;28;20059;-86
2021/11/01 05:17:38;;;;;;;1.10;0.20;;;10.30;99.90;;;;;;5056790;28;20025;-86
2021/11/01 05:20:11;;;;;;;0.40;0.10;;;10.30;99.90;;;;;;5059714;28;20032;-86
2021/11/01 05:25:28;;;;;;;1.50;0.20;;;10.30;99.90;;;;;;5053449;28;20100;-85
2021/11/01 05:28:07;;;;;;;1.08;0.10;;;10.30;99.90;;;;;;5051375;28;20404;-85
2021/11/01 05:30:36;;;;;;;0.10;0.10;;;10.30;99.90;;;;;;5048698;28;20029;-85
2021/11/01 05:33:23;;;;;;;0.70;0.20;;;10.20;99.90;;;;;;5051449;28;20017;-85
2021/11/01 05:35:48;;;;;;;1.80;0.20;;;10.20;99.90;;;;;;5050884;28;20475;-86
2021/11/01 05:38:14;;;;;;;1.15;0.30;;;10.20;99.90;;;;;;5051060;28;20043;-86
2021/11/01 05:40:40;;;;;;;1.27;0.40;;;10.10;99.90;;;;;;5049070;28;20021;-86
2021/11/01 05:43:05;;;;;;;2.05;0.60;;;10.20;99.90;;;;;;5052816;28;20090;-85
2021/11/01 05:45:32;;;;;;;1.00;0.55;;;10.10;99.90;;;;;;5051960;28;20021;-85
2021/11/01 05:48:00;;;;;;;2.47;0.90;;;10.10;99.90;;;;;;5050755;28;20025;-85
2021/11/01 05:50:30;;;;;;;1.65;0.80;;;10.10;99.90;;;;;;5066708;28;20021;-85
2021/11/01 05:52:58;;;;;;;13.75;1.10;;;10.10;99.90;;;;;;5052646;28;20024;-86
2021/11/01 05:58:32;;;;;;;1.73;0.80;;;10.00;99.90;;;;;;5054796;28;20025;-85
2021/11/01 06:03:44;;;;;;;1.90;0.85;;;9.90;99.90;;;;;;5060002;28;20021;-85
2021/11/01 06:14:30;;;;;;;2.63;1.27;;;10.20;99.90;;;;;;5048566;28;20397;-85
2021/11/01 06:16:56;;;;;;;2.90;1.10;;;9.80;99.90;;;;;;5046510;28;20025;-85
2021/11/01 06:19:22;;;;;;;2.97;0.93;;;9.90;99.90;;;;;;5047142;28;20017;-85
2021/11/01 06:21:48;;;;;;;2.28;0.57;;;10.00;99.90;;;;;;5047145;28;20025;-85
2021/11/01 06:24:47;;;;;;;2.15;0.65;;;10.00;99.90;;;;;;5049616;28;20504;-85
2021/11/01 06:27:14;;;;;;;1.67;0.70;;;10.00;99.90;;;;;;5049740;28;20021;-86
2021/11/01 06:40:50;;;;;;;4.40;0.38;;;9.90;99.90;;;;;;5050139;28;20072;-86
2021/11/01 06:43:17;;;;;;;0.93;0.20;;;10.00;99.90;;;;;;5045017;28;20455;-85
2021/11/01 06:51:37;;;;;;;0.17;0.10;;;9.70;99.90;;;;;;5050206;28;20390;-85
2021/11/01 06:57:41;;;;;;;0.43;0.20;;;9.60;99.90;;;;;;5051295;28;20032;-85
2021/11/01 07:16:07;;;;;;;0.47;0.10;;;9.30;99.90;;;;;;5050395;28;20072;-84
2021/11/01 07:18:42;;;;;;;3.35;0.20;;;9.40;99.90;;;;;;5047853;28;20026;-85
2021/11/01 07:21:33;;;;;;;2.50;0.17;;;9.10;99.90;;;;;;5048533;28;20022;-85
2021/11/01 08:27:03;;;;;;;0.43;0.10;;;9.00;99.90;;;;;;5061953;28;20043;-83
2021/11/01 09:29:16;;;;;;;0.73;0.20;;;9.40;99.90;;;;;;5092981;28;20043;-80
2021/11/01 09:42:18;;;;;;;0.95;0.30;;;9.50;99.90;;;;;;5089873;28;20116;-82
2021/11/01 09:44:48;;;;;;;0.13;0.10;;;9.40;99.90;;;;;;5081275;28;20039;-81
2021/11/01 09:47:14;;;;;;;2.10;0.30;;;9.40;99.90;;;;;;5070191;28;20028;-83
2021/11/01 09:49:41;;;;;;;1.88;0.20;;;9.40;99.90;;;;;;5067570;28;20066;-82
2021/11/01 09:52:10;;;;;;;0.77;0.22;;;9.50;99.90;;;;;;5095839;28;20487;-83
2021/11/01 09:54:37;;;;;;;1.75;0.35;;;9.50;99.90;;;;;;5093324;28;20027;-83
2021/11/01 09:57:09;;;;;;;0.65;0.28;;;9.60;99.90;;;;;;5090830;28;20084;-83
2021/11/01 09:59:38;;;;;;;0.80;0.22;;;9.60;99.90;;;;;;5065925;28;20021;-85
2021/11/01 10:02:08;;;;;;;0.52;0.20;;;9.60;99.90;;;;;;5083662;28;20032;-82
2021/11/01 10:04:35;;;;;;;1.40;0.22;;;9.50;99.90;;;;;;5056121;28;20033;-83
2021/11/01 10:07:34;;;;;;;0.30;0.10;;;9.50;99.90;;;;;;5080942;28;20032;-83
2021/11/01 10:10:11;;;;;;;0.32;0.10;;;9.50;99.90;;;;;;5074405;28;20023;-82
2021/11/01 10:12:39;;;;;;;0.45;0.20;;;9.40;99.90;;;;;;5066328;28;20016;-83
2021/11/01 10:18:14;;;;;;;1.65;0.20;;;9.40;99.90;;;;;;5070731;28;20532;-81
2021/11/01 10:21:00;;;;;;;0.70;0.20;;;9.50;99.90;;;;;;5050413;28;20033;-84
2021/11/01 10:23:30;;;;;;;0.32;0.10;;;9.50;99.90;;;;;;5062808;28;20043;-84
2021/11/01 10:26:15;;;;;;;0.52;0.20;;;9.50;99.90;;;;;;5063420;28;20049;-83
2021/11/01 10:28:41;;;;;;;0.30;0.10;;;9.50;99.90;;;;;;5062596;28;20021;-81
2021/11/01 10:31:27;;;;;;;0.63;0.13;;;9.50;99.90;;;;;;5059551;28;20059;-82
2021/11/01 10:34:07;;;;;;;0.32;0.20;;;9.50;99.90;;;;;;5049584;28;20033;-84
2021/11/01 10:36:37;;;;;;;0.77;0.15;;;9.60;99.90;;;;;;5051041;28;20086;-81
2021/11/01 10:39:10;;;;;;;0.77;0.20;;;9.60;99.90;;;;;;5069122;28;20024;-84
2021/11/01 10:41:48;;;;;;;0.50;0.25;;;9.60;99.90;;;;;;5060678;28;20039;-84
2021/11/01 10:45:27;;;;;;;0.30;0.05;;;9.70;99.90;;;;;;5063618;28;20036;-83
2021/11/01 10:56:44;;;;;;;1.75;0.30;;;9.80;99.90;;;;;;5036308;28;20029;-85
2021/11/01 10:59:13;;;;;;;0.20;0.08;;;10.00;99.90;;;;;;5088448;28;20115;-83
2021/11/01 11:12:57;;;;;;;1.55;0.32;;;10.00;99.90;;;;;;5077954;28;20035;-85
2021/11/01 11:15:25;;;;;;;0.85;0.10;;;10.20;99.90;;;;;;5060471;28;20035;-85
2021/11/01 11:18:48;;;;;;;0.50;0.20;;;10.00;99.90;;;;;;5074492;28;20076;-85
2021/11/01 11:26:06;;;;;;;0.20;0.20;;;10.10;99.90;;;;;;5081246;28;20024;-84
2021/11/01 11:28:49;;;;;;;0.75;0.20;;;10.10;99.90;;;;;;5073053;28;20117;-84
2021/11/01 11:37:15;;;;;;;0.35;0.20;;;10.30;99.90;;;;;;5082380;28;20024;-84
2021/11/01 11:48:24;;;;;;;1.80;0.43;;;10.40;99.90;;;;;;5079037;28;20052;-82
2021/11/01 11:50:51;;;;;;;0.80;0.40;;;10.30;99.90;;;;;;5071830;28;20021;-83
2021/11/01 11:53:22;;;;;;;0.82;0.40;;;10.20;99.90;;;;;;5078164;28;20476;-84
2021/11/01 11:56:22;;;;;;;1.75;0.43;;;10.20;99.90;;;;;;5063345;28;20021;-83
2021/11/01 11:58:50;;;;;;;1.15;0.30;;;10.10;99.90;;;;;;5074867;28;20038;-82
2021/11/01 12:01:35;;;;;;;0.88;0.30;;;10.10;99.90;;;;;;5076062;28;20028;-83
2021/11/01 12:04:04;;;;;;;0.70;0.30;;;10.00;99.90;;;;;;5057318;28;20025;-83
2021/11/01 12:07:01;;;;;;;1.38;0.50;;;10.00;99.90;;;;;;5066312;28;20111;-82
2021/11/01 12:09:32;;;;;;;0.70;0.30;;;10.00;99.90;;;;;;5049860;28;20037;-83
2021/11/01 12:12:20;;;;;;;1.17;0.43;;;10.00;99.90;;;;;;5040441;28;20048;-81
2021/11/01 12:17:22;;;;;;;1.77;0.50;;;10.00;99.90;;;;;;5062246;28;20033;-83
2021/11/01 12:19:49;;;;;;;1.30;0.38;;;10.00;99.90;;;;;;5061792;28;20029;-83
2021/11/01 12:22:28;;;;;;;1.40;0.43;;;10.00;99.90;;;;;;5071211;28;20088;-84
2021/11/01 12:24:55;;;;;;;0.98;0.52;;;10.00;99.90;;;;;;5066814;28;20029;-84
2021/11/01 12:27:21;;;;;;;1.40;0.68;;;10.00;99.90;;;;;;5065129;28;20405;-84
2021/11/01 12:29:49;;;;;;;1.15;0.40;;;10.00;99.90;;;;;;5045712;28;20036;-83
2021/11/01 12:32:15;;;;;;;1.63;0.50;;;10.00;99.90;;;;;;5065027;28;20033;-83
2021/11/01 12:37:28;;;;;;;1.77;0.50;;;10.10;99.90;;;;;;5064311;28;20052;-84
2021/11/01 12:40:11;;;;;;;3.13;1.30;;;10.10;99.90;;;;;;5064604;28;20060;-84
2021/11/01 12:42:51;;;;;;;2.22;0.52;;;10.10;99.90;;;;;;5065840;28;20052;-84
2021/11/01 12:58:57;;;;;;;1.17;0.50;;;10.00;99.90;;;;;;5064070;28;20078;-83
2021/11/01 13:01:24;;;;;;;1.80;0.50;;;10.00;99.90;;;;;;5062352;28;20032;-82
2021/11/01 13:03:53;;;;;;;1.52;0.68;;;10.00;99.90;;;;;;5045102;28;20024;-83
2021/11/01 13:06:33;;;;;;;1.13;0.60;;;10.10;99.90;;;;;;5073244;28;20048;-83
2021/11/01 13:09:05;;;;;;;2.28;0.60;;;10.10;99.90;;;;;;5082735;28;20024;-83
2021/11/01 13:14:41;;;;;;;1.52;0.70;;;10.10;99.90;;;;;;5081682;28;20035;-85
2021/11/01 13:19:52;;;;;;;1.35;0.57;;;10.10;99.90;;;;;;5061463;28;20039;-84
2021/11/01 13:22:55;;;;;;;1.88;0.60;;;10.00;99.90;;;;;;5061914;28;20028;-83
2021/11/01 13:25:28;;;;;;;1.05;0.70;;;10.00;99.90;;;;;;5077279;28;20082;-83
2021/11/01 13:28:15;;;;;;;2.70;0.60;;;10.10;99.90;;;;;;5065700;28;20514;-83
2021/11/01 13:38:45;;;;;;;1.52;0.52;;;10.10;99.90;;;;;;5067342;28;20085;-83
2021/11/01 13:41:15;;;;;;;1.73;0.70;;;10.10;99.90;;;;;;5078587;28;20016;-84
2021/11/01 13:43:41;;;;;;;4.68;0.57;;;10.10;99.90;;;;;;5064137;28;20112;-84
2021/11/01 13:46:10;;;;;;;2.78;0.50;;;10.10;99.90;;;;;;5070434;28;20100;-85
2021/11/01 13:48:36;;;;;;;1.92;0.60;;;10.10;99.90;;;;;;5064899;28;20132;-83
2021/11/01 13:51:10;;;;;;;1.20;0.40;;;10.10;99.90;;;;;;5078897;28;20025;-81
2021/11/01 13:56:42;;;;;;;1.17;0.40;;;10.00;99.90;;;;;;5082642;28;20113;-85
2021/11/01 14:18:47;;;;;;;2.83;0.70;;;10.20;99.90;;;;;;5052248;28;20018;-86
2021/11/01 15:09:56;;;;;;;2.72;1.20;;;10.60;99.90;;;;;;5061441;28;20039;-88
2021/11/01 15:15:26;;;;;;;1.77;0.90;;;10.60;99.90;;;;;;5058877;28;20112;-87
2021/11/01 15:17:58;;;;;;;1.90;0.88;;;10.70;99.90;;;;;;5063238;28;20108;-87
2021/11/01 15:21:04;;;;;;;1.85;0.90;;;10.40;99.90;;;;;;5064636;28;20078;-87
2021/11/01 15:36:41;;;;;;;3.38;1.15;;;10.70;99.90;;;;;;5058771;28;20505;-87
2021/11/01 15:42:23;;;;;;;2.58;0.80;;;10.50;99.90;;;;;;5065802;28;20025;-87
2021/11/01 16:17:29;;;;;;;2.20;0.90;;;9.80;99.90;;;;;;5069794;28;20035;-87
2021/11/01 16:19:56;;;;;;;2.47;1.17;;;9.80;99.90;;;;;;5068000;28;20024;-87
2021/11/01 16:22:23;;;;;;;0.93;0.40;;;9.10;99.90;;;;;;5064238;28;20059;-88
2021/11/01 16:24:49;;;;;;;2.00;0.75;;;9.70;99.90;;;;;;5068766;28;20024;-86
2021/11/01 16:27:18;;;;;;;1.83;0.85;;;9.70;99.90;;;;;;5067040;28;20035;-85
2021/11/01 16:29:49;;;;;;;2.78;0.85;;;9.60;99.90;;;;;;5066969;28;20089;-85
2021/11/01 16:32:28;;;;;;;1.85;0.90;;;9.60;99.90;;;;;;5061754;28;20040;-88
2021/11/01 16:35:00;;;;;;;2.28;0.60;;;9.60;99.90;;;;;;5050339;28;20111;-87
2021/11/01 16:37:29;;;;;;;1.77;0.73;;;9.60;99.90;;;;;;5064737;28;20036;-88
2021/11/01 16:40:05;;;;;;;1.92;0.65;;;9.50;99.90;;;;;;5062012;28;21277;-87
2021/11/01 16:42:33;;;;;;;2.45;0.88;;;9.60;99.90;;;;;;5066821;28;20120;-87
2021/11/01 16:45:08;;;;;;;2.47;0.90;;;9.80;99.90;;;;;;5065581;28;20030;-87
2021/11/01 16:47:35;;;;;;;2.00;0.77;;;9.50;99.90;;;;;;5046999;28;20016;-88
2021/11/01 16:50:05;;;;;;;1.15;0.50;;;9.60;99.90;;;;;;5057190;28;20028;-86
2021/11/01 16:52:31;;;;;;;2.85;0.82;;;9.60;99.90;;;;;;5035362;28;20133;-87
2021/11/01 16:55:04;;;;;;;2.05;0.70;;;9.60;99.90;;;;;;5052401;28;20029;-87
2021/11/01 16:57:41;;;;;;;2.80;0.70;;;9.60;99.90;;;;;;5068491;28;20028;-85
2021/11/01 17:03:19;;;;;;;3.00;0.88;;;9.50;99.90;;;;;;5066536;28;20036;-86
2021/11/01 17:21:15;;;;;;;2.17;0.80;;;9.80;99.90;;;;;;5066428;28;20036;-87
2021/11/01 17:22:19;;;;;;;2.42;0.98;;;9.40;99.90;;;;;;5068871;28;20198;-88
2021/11/01 17:25:34;;;;;;;2.80;0.90;;;9.30;99.90;;;;;;5050660;28;20084;-87
2021/11/01 18:45:24;;;;;;;2.72;1.13;;;9.00;99.90;;;;;;5022065;28;20147;-88
2021/11/01 18:50:57;;;;;;;3.08;1.30;;;8.50;99.90;;;;;;5027460;28;20032;-86
2021/11/01 18:53:37;;;;;;;3.80;1.23;;;9.00;99.90;;;;;;5045625;28;20021;-86
2021/11/01 18:56:09;;;;;;;3.87;1.30;;;8.70;99.90;;;;;;5070918;28;20024;-86
2021/11/01 18:58:39;;;;;;;2.45;1.25;;;9.20;99.90;;;;;;5056980;28;20860;-87
2021/11/01 19:01:09;;;;;;;3.35;1.35;;;9.40;99.90;;;;;;5071630;28;20025;-87
2021/11/01 19:03:54;;;;;;;3.22;1.40;;;10.00;99.90;;;;;;5065878;28;20021;-87
2021/11/01 19:06:35;;;;;;;2.73;0.90;;;9.70;99.90;;;;;;5067247;28;20172;-88
2021/11/01 19:09:23;;;;;;;2.17;1.00;;;8.60;99.90;;;;;;5051963;28;20032;-88
2021/11/01 19:12:50;;;;;;;3.55;1.00;;;8.70;99.90;;;;;;5062761;28;20024;-88
2021/11/01 20:05:36;;;;;;;1.33;0.60;;;7.90;99.90;;;;;;4978899;28;20115;-88
2021/11/01 20:08:22;;;;;;;2.42;0.60;;;9.30;99.90;;;;;;5051002;28;20024;-88
2021/11/01 20:13:24;;;;;;;2.17;0.60;;;7.60;99.90;;;;;;5067544;28;20048;-87
2021/11/01 20:16:05;;;;;;;1.77;0.60;;;7.40;99.90;;;;;;5074742;28;20017;-87
2021/11/01 21:26:07;;;;;;;1.47;0.60;;;7.30;99.90;;;;;;4990907;28;20038;-87
2021/11/01 21:28:33;;;;;;;1.47;0.70;;;7.20;99.90;;;;;;4966651;28;20086;-87
2021/11/01 21:30:59;;;;;;;1.57;0.83;;;7.00;99.90;;;;;;5021631;28;20086;-86
2021/11/01 21:33:31;;;;;;;2.87;0.70;;;7.10;99.90;;;;;;5073678;28;20389;-86
2021/11/01 21:36:03;;;;;;;1.40;0.60;;;7.40;99.90;;;;;;5069613;28;20104;-87
2021/11/01 21:38:29;;;;;;;;;;;7.40;99.90;;;;;;5066549;28;20330;-87
2021/11/01 21:40:54;;;;;;;2.07;0.70;;;7.10;99.90;;;;;;5062184;28;19954;-88
2021/11/01 21:43:21;;;;;;;1.80;0.47;;;6.50;99.90;;;;;;5040028;28;20028;-88
2021/11/01 21:45:47;;;;;;;2.83;0.70;;;7.50;99.90;;;;;;5074980;23;20036;-85
2021/11/01 21:48:13;;;;;;;2.03;0.70;;;7.00;99.90;;;;;;5095142;28;20586;-85
2021/11/01 21:50:44;;;;;;;5.53;0.80;;;7.20;99.90;;;;;;5105724;28;20031;-85
2021/11/01 21:53:11;;;;;;;2.40;0.88;;;7.00;99.90;;;;;;5088424;28;20038;-84
2021/11/01 21:55:36;;;;;;;2.27;0.80;;;7.10;99.90;;;;;;5092975;28;20024;-85
2021/11/01 21:58:54;;;;;;;1.73;0.77;;;7.00;99.90;;;;;;5089799;28;20437;-84
2021/11/01 22:38:43;;;;;;;2.50;0.90;;;7.00;99.90;;;;;;5117856;28;20085;-85
2021/11/01 22:41:17;;;;;;;2.90;1.00;;;7.00;99.90;;;;;;5120335;27;20035;-85
2021/11/01 22:55:40;;;;;;;3.97;0.93;;;6.90;99.90;;;;;;5067057;28;20044;-83
2021/11/01 22:58:07;;;;;;;2.40;0.87;;;6.90;99.90;;;;;;5089933;28;20028;-83
2021/11/01 23:00:37;;;;;;;1.43;0.67;;;6.90;99.90;;;;;;5096143;28;20496;-85
2021/11/01 23:03:17;;;;;;;1.70;0.70;;;6.70;99.90;;;;;;5108889;28;20043;-81
2021/11/01 23:33:24;;;;;;;7.00;1.20;;;7.10;99.90;;;;;;5125100;28;20033;-83
2021/11/01 23:35:51;;;;;;;2.73;0.87;;;7.10;99.90;;;;;;5115002;28;20020;-83
2021/11/01 23:38:18;;;;;;;2.37;0.77;;;7.10;99.90;;;;;;5119769;28;20023;-85
2021/11/01 23:40:44;;;;;;;1.73;0.60;;;7.10;99.90;;;;;;5118615;28;20114;-84
2021/11/01 23:43:13;;;;;;;2.03;0.60;;;7.10;99.90;;;;;;5120608;28;20032;-84
2021/11/01 23:45:44;;;;;;;3.60;1.00;;;7.40;99.90;;;;;;5120278;28;20023;-84
2021/11/01 23:48:11;;;;;;;1.23;0.60;;;7.20;99.90;;;;;;5101388;28;20118;-84
2021/11/01 23:50:37;;;;;;;2.17;0.67;;;7.40;99.90;;;;;;5117603;28;20034;-84
2021/11/01 23:54:00;;;;;;;2.47;0.67;;;7.20;99.90;;;;;;5119714;28;20051;-82
2021/11/01 23:55:50;;;;;;;2.83;0.90;;;7.20;99.90;;;;;;5104679;28;20036;-84
2021/11/01 23:58:16;;;;;;;3.67;0.80;;;7.30;99.90;;;;;;5110904;28;20107;-84
